Time;durP1;ratioP1;P1;durP2;ratioP2;P2;SDS_P1;SDS_P2;PMS_P1;PMS_P2;Temp;Humidity;BMP_temperature;BMP_pressure;BME280_temperature;BME280_humidity;BME280_pressure;Samples;Min_cycle;Max_cycle;Signal;HPM_P1;HPM_P2
2022/08/19 00:00:36;;;;;;;9.35;6.00;;;17.60;18.10;;;;;;5080231;28;34154;-76
2022/08/19 00:03:04;;;;;;;6.80;5.82;;;17.60;18.50;;;;;;5066305;28;34569;-76
2022/08/19 00:05:31;;;;;;;7.75;6.57;;;17.50;18.70;;;;;;5068279;28;35757;-76
2022/08/19 00:07:57;;;;;;;6.57;5.57;;;17.50;18.80;;;;;;5067777;28;34225;-76
2022/08/19 00:10:24;;;;;;;6.18;5.50;;;17.50;18.80;;;;;;5068773;28;34181;-76
2022/08/19 00:12:51;;;;;;;8.95;5.85;;;17.50;18.90;;;;;;5064664;28;34082;-76
2022/08/19 00:15:20;;;;;;;7.72;5.93;;;17.40;18.80;;;;;;5084067;28;34836;-76
2022/08/19 00:17:46;;;;;;;8.88;6.20;;;17.40;19.10;;;;;;5068240;28;34537;-76
2022/08/19 00:20:16;;;;;;;8.13;6.28;;;17.40;18.80;;;;;;5068263;28;34268;-76
2022/08/19 00:22:44;;;;;;;6.22;5.50;;;17.30;18.90;;;;;;5067500;28;34134;-76
2022/08/19 00:25:11;;;;;;;9.32;6.13;;;17.30;19.20;;;;;;5068557;28;36423;-76
2022/08/19 00:27:40;;;;;;;7.00;6.13;;;17.30;19.20;;;;;;5068219;28;34183;-76
2022/08/19 00:30:10;;;;;;;9.57;6.07;;;17.30;19.60;;;;;;5064450;28;34231;-76
2022/08/19 00:32:36;;;;;;;7.55;6.13;;;17.20;19.10;;;;;;5048450;28;34179;-76
2022/08/19 00:35:02;;;;;;;5.90;5.30;;;17.20;19.20;;;;;;5048209;28;35846;-76
2022/08/19 00:37:28;;;;;;;6.63;5.78;;;17.10;19.00;;;;;;5048832;28;34193;-76
2022/08/19 00:39:55;;;;;;;7.53;5.82;;;17.10;19.20;;;;;;5076020;28;34554;-76
2022/08/19 00:42:22;;;;;;;6.93;5.68;;;17.10;19.40;;;;;;5032131;28;34507;-76
2022/08/19 00:44:49;;;;;;;7.18;6.15;;;17.10;19.30;;;;;;5060868;28;36307;-76
2022/08/19 00:47:14;;;;;;;6.82;5.95;;;17.00;19.20;;;;;;5060547;28;34082;-76
2022/08/19 00:49:50;;;;;;;7.32;5.68;;;17.00;19.20;;;;;;5058524;28;34185;-76
2022/08/19 00:52:22;;;;;;;9.25;6.00;;;17.00;19.60;;;;;;5065340;28;34412;-76
2022/08/19 00:54:49;;;;;;;6.50;5.80;;;17.00;19.80;;;;;;5084990;28;34151;-76
2022/08/19 00:57:19;;;;;;;7.10;6.13;;;17.00;19.50;;;;;;5058686;28;34328;-76
2022/08/19 00:59:52;;;;;;;6.47;5.63;;;17.00;19.40;;;;;;5059695;28;34265;-76
2022/08/19 01:02:18;;;;;;;8.55;5.95;;;16.90;19.90;;;;;;5067941;28;34159;-76
2022/08/19 01:04:44;;;;;;;6.75;5.78;;;16.90;19.60;;;;;;5067076;28;36168;-76
2022/08/19 01:07:10;;;;;;;7.22;6.13;;;16.80;19.70;;;;;;5051807;28;34163;-76
2022/08/19 01:09:36;;;;;;;7.10;6.22;;;16.80;19.70;;;;;;5067314;28;34439;-76
2022/08/19 01:12:04;;;;;;;7.88;6.05;;;16.80;19.80;;;;;;5068241;28;34075;-76
2022/08/19 01:14:31;;;;;;;10.32;5.47;;;16.70;19.70;;;;;;5067377;28;35997;-76
2022/08/19 01:16:59;;;;;;;6.32;5.35;;;16.70;19.90;;;;;;5066929;28;34114;-76
2022/08/19 01:19:31;;;;;;;6.80;5.90;;;16.70;19.70;;;;;;5063645;28;34192;-76
2022/08/19 01:22:05;;;;;;;6.85;6.15;;;16.70;20.10;;;;;;5064067;28;34351;-76
2022/08/19 01:24:31;;;;;;;7.72;5.78;;;16.70;20.70;;;;;;5063934;28;34322;-76
2022/08/19 01:26:57;;;;;;;8.40;6.47;;;16.60;20.00;;;;;;5048574;28;34214;-76
2022/08/19 01:29:23;;;;;;;7.20;6.05;;;16.50;20.20;;;;;;5085040;28;34226;-76
2022/08/19 01:31:52;;;;;;;8.10;6.25;;;16.50;20.20;;;;;;5066998;28;34487;-76
2022/08/19 01:34:19;;;;;;;6.63;6.03;;;16.50;20.30;;;;;;5066406;28;35834;-76
2022/08/19 01:36:47;;;;;;;7.00;5.80;;;16.50;20.30;;;;;;5039538;28;34193;-76
2022/08/19 01:39:19;;;;;;;6.88;5.72;;;16.40;21.20;;;;;;5046495;28;34282;-76
2022/08/19 01:41:46;;;;;;;6.72;6.03;;;16.40;20.40;;;;;;5048492;28;34224;-76
2022/08/19 01:44:12;;;;;;;7.20;5.85;;;16.40;20.50;;;;;;5046224;28;35662;-76
2022/08/19 01:46:38;;;;;;;9.15;5.93;;;16.40;20.20;;;;;;5064487;28;34488;-76
2022/08/19 01:49:06;;;;;;;8.45;6.22;;;16.40;20.40;;;;;;5081343;28;34131;-76
2022/08/19 01:51:31;;;;;;;6.47;5.82;;;16.40;20.70;;;;;;5059355;28;34546;-76
2022/08/19 01:53:58;;;;;;;7.40;6.38;;;16.40;20.60;;;;;;5069463;28;35106;-76
2022/08/19 01:56:24;;;;;;;7.68;5.88;;;16.40;20.60;;;;;;5030336;28;34145;-76
2022/08/19 01:58:57;;;;;;;7.28;5.95;;;16.40;20.40;;;;;;5047690;28;34196;-76
2022/08/19 02:01:23;;;;;;;7.03;6.15;;;16.40;20.70;;;;;;5059452;28;34210;-75
2022/08/19 02:03:49;;;;;;;7.43;5.93;;;16.40;20.70;;;;;;5061794;28;34347;-76
2022/08/19 02:06:16;;;;;;;8.00;6.53;;;16.30;20.70;;;;;;5062857;28;34060;-76
2022/08/19 02:08:45;;;;;;;8.02;5.78;;;16.30;20.90;;;;;;5062568;28;34277;-76
2022/08/19 02:11:26;;;;;;;8.05;6.22;;;16.30;20.90;;;;;;5052393;28;34053;-76
2022/08/19 02:13:53;;;;;;;6.50;5.90;;;16.30;22.40;;;;;;5082889;28;35612;-76
2022/08/19 02:16:20;;;;;;;6.75;5.95;;;16.30;21.10;;;;;;5049050;28;34175;-76
2022/08/19 02:18:48;;;;;;;10.13;6.50;;;16.20;21.20;;;;;;5065532;28;34129;-76
2022/08/19 02:21:15;;;;;;;7.03;6.32;;;16.20;21.20;;;;;;5079640;28;34189;-77
2022/08/19 02:23:42;;;;;;;8.38;6.30;;;16.20;21.40;;;;;;5064863;28;35724;-76
2022/08/19 02:26:09;;;;;;;7.88;6.63;;;16.20;21.20;;;;;;5064803;28;34167;-76
2022/08/19 02:28:36;;;;;;;6.85;6.15;;;16.20;20.80;;;;;;5080534;28;34410;-76
2022/08/19 02:31:02;;;;;;;8.02;6.85;;;16.20;21.10;;;;;;5061047;28;34559;-76
2022/08/19 02:33:29;;;;;;;8.73;6.70;;;16.20;21.40;;;;;;5077649;28;34489;-76
2022/08/19 02:35:55;;;;;;;8.13;6.22;;;16.20;21.80;;;;;;5082206;28;35722;-76
2022/08/19 02:38:28;;;;;;;10.65;6.32;;;16.20;21.00;;;;;;5057491;28;34483;-76
2022/08/19 02:41:00;;;;;;;7.63;6.38;;;16.20;21.40;;;;;;5060740;28;34306;-76
2022/08/19 02:43:28;;;;;;;7.28;6.18;;;16.10;21.80;;;;;;5052683;28;35146;-76
2022/08/19 02:45:54;;;;;;;7.47;6.38;;;16.10;21.60;;;;;;5041788;28;34234;-76
2022/08/19 02:48:23;;;;;;;7.22;6.38;;;16.10;21.70;;;;;;5045144;28;34225;-76
2022/08/19 02:50:54;;;;;;;9.55;6.93;;;16.10;21.60;;;;;;5083073;28;34236;-76
2022/08/19 02:53:27;;;;;;;7.30;6.57;;;16.10;21.40;;;;;;5064985;28;34232;-76
2022/08/19 02:55:53;;;;;;;7.15;5.90;;;16.10;21.90;;;;;;5064653;28;34417;-76
2022/08/19 02:58:21;;;;;;;8.88;6.82;;;16.10;21.40;;;;;;5066308;28;34182;-76
2022/08/19 03:00:50;;;;;;;11.52;6.53;;;16.10;21.80;;;;;;5086368;28;34117;-76
2022/08/19 03:03:18;;;;;;;8.18;6.45;;;16.10;21.50;;;;;;5069208;28;35123;-76
2022/08/19 03:05:44;;;;;;;7.60;6.30;;;16.00;21.80;;;;;;5068461;28;34200;-76
2022/08/19 03:08:13;;;;;;;7.80;6.45;;;16.00;21.40;;;;;;5085597;28;34126;-76
2022/08/19 03:10:44;;;;;;;7.82;6.38;;;16.00;21.60;;;;;;5043284;28;34313;-76
2022/08/19 03:13:12;;;;;;;7.47;6.60;;;16.00;21.80;;;;;;5056479;28;35473;-76
2022/08/19 03:15:41;;;;;;;7.25;6.18;;;16.00;21.60;;;;;;5051098;28;34178;-77
2022/08/19 03:18:07;;;;;;;7.40;6.30;;;16.00;21.70;;;;;;5087207;28;34139;-77
2022/08/19 03:20:33;;;;;;;6.47;5.78;;;16.00;21.80;;;;;;5068831;28;34117;-75
2022/08/19 03:22:59;;;;;;;7.65;6.60;;;16.00;21.90;;;;;;5051158;28;35948;-75
2022/08/19 03:25:25;;;;;;;7.82;6.47;;;16.00;21.80;;;;;;5084493;28;34118;-75
2022/08/19 03:27:51;;;;;;;7.93;6.57;;;15.90;22.00;;;;;;5023715;28;34204;-75
2022/08/19 03:30:17;;;;;;;7.85;6.82;;;15.90;21.90;;;;;;5048054;28;34530;-75
2022/08/19 03:32:43;;;;;;;8.98;6.85;;;15.80;22.10;;;;;;5047470;28;36403;-75
2022/08/19 03:35:09;;;;;;;9.82;6.78;;;15.80;21.80;;;;;;5004225;28;34378;-75
2022/08/19 03:37:35;;;;;;;10.13;6.70;;;15.90;22.00;;;;;;5058833;28;34091;-75
2022/08/19 03:40:03;;;;;;;10.40;6.80;;;15.80;22.30;;;;;;5052784;28;34672;-75
2022/08/19 03:42:29;;;;;;;8.40;6.70;;;15.80;22.50;;;;;;5065976;28;35007;-75
2022/08/19 03:44:55;;;;;;;8.45;6.82;;;15.80;23.10;;;;;;5065313;28;34377;-75
2022/08/19 03:47:21;;;;;;;8.10;6.65;;;15.80;22.50;;;;;;5028116;28;34867;-75
2022/08/19 03:49:47;;;;;;;7.93;6.85;;;15.80;22.20;;;;;;5064958;28;34436;-75
2022/08/19 03:52:13;;;;;;;8.77;6.82;;;15.80;22.50;;;;;;5084638;28;34290;-75
2022/08/19 03:54:39;;;;;;;7.50;6.20;;;15.80;22.50;;;;;;5085438;28;34212;-75
2022/08/19 03:57:06;;;;;;;8.25;7.13;;;15.80;22.40;;;;;;5057609;28;34238;-75
2022/08/19 03:59:35;;;;;;;8.25;6.40;;;15.70;22.30;;;;;;5085681;28;34086;-75
2022/08/19 04:02:06;;;;;;;8.32;6.72;;;15.70;22.50;;;;;;5067783;28;35800;-75
2022/08/19 04:04:32;;;;;;;8.07;7.07;;;15.70;22.60;;;;;;5051807;28;34086;-75
2022/08/19 04:06:58;;;;;;;7.93;6.63;;;15.70;22.50;;;;;;5050842;28;34503;-75
2022/08/19 04:09:25;;;;;;;9.98;6.38;;;15.70;22.30;;;;;;5047260;28;34415;-75
2022/08/19 04:11:53;;;;;;;7.85;6.78;;;15.60;22.60;;;;;;5070431;28;34275;-75
2022/08/19 04:14:23;;;;;;;8.05;6.85;;;15.60;22.40;;;;;;5064465;28;34289;-75
2022/08/19 04:16:50;;;;;;;11.38;7.03;;;15.60;22.50;;;;;;5056694;28;34388;-75
2022/08/19 04:19:18;;;;;;;8.05;6.78;;;15.60;22.10;;;;;;5068443;28;34306;-75
2022/08/19 04:21:49;;;;;;;8.90;6.68;;;15.60;22.80;;;;;;5036321;28;36225;-75
2022/08/19 04:24:16;;;;;;;7.10;6.40;;;15.50;22.60;;;;;;5031101;28;34141;-75
2022/08/19 04:26:43;;;;;;;7.80;6.30;;;15.50;22.80;;;;;;5093885;28;34312;-75
2022/08/19 04:29:13;;;;;;;9.57;6.40;;;15.50;22.50;;;;;;5064186;28;34235;-75
2022/08/19 04:31:40;;;;;;;9.55;6.68;;;15.50;22.80;;;;;;5048002;28;36111;-75
2022/08/19 04:34:10;;;;;;;8.77;7.18;;;15.50;22.80;;;;;;5067595;28;34178;-75
2022/08/19 04:36:37;;;;;;;8.25;7.03;;;15.50;22.60;;;;;;5067642;28;34698;-75
2022/08/19 04:39:08;;;;;;;9.02;6.53;;;15.50;22.60;;;;;;5064877;28;34067;-75
2022/08/19 04:44:17;;;;;;;11.15;7.28;;;15.40;22.80;;;;;;5087761;28;34028;-75
2022/08/19 04:46:46;;;;;;;8.52;7.00;;;15.50;23.00;;;;;;5067332;28;34197;-75
2022/08/19 04:49:12;;;;;;;10.82;7.57;;;15.40;22.80;;;;;;5106396;28;34119;-75
2022/08/19 04:51:41;;;;;;;8.50;7.40;;;15.40;22.70;;;;;;5072043;28;36503;-76
2022/08/19 04:54:08;;;;;;;8.80;6.50;;;15.50;23.20;;;;;;5065446;28;34294;-75
2022/08/19 04:56:34;;;;;;;9.23;8.05;;;15.50;22.80;;;;;;5086139;28;34220;-75
2022/08/19 04:59:04;;;;;;;8.10;7.15;;;15.50;23.00;;;;;;5068089;28;34326;-75
2022/08/19 05:01:33;;;;;;;8.30;7.50;;;15.50;22.90;;;;;;5063600;28;36105;-76
2022/08/19 05:04:01;;;;;;;10.13;7.35;;;15.60;23.90;;;;;;5075490;28;34285;-75
2022/08/19 05:06:28;;;;;;;7.80;7.00;;;15.60;23.10;;;;;;5030842;28;34562;-76
2022/08/19 05:08:54;;;;;;;9.77;8.13;;;15.60;23.20;;;;;;5071609;28;34174;-75
2022/08/19 05:11:25;;;;;;;7.80;6.90;;;15.60;23.20;;;;;;5069913;28;35805;-75
2022/08/19 05:13:52;;;;;;;8.60;7.30;;;15.70;23.00;;;;;;5045729;28;34187;-75
2022/08/19 05:16:21;;;;;;;8.27;7.38;;;15.70;23.30;;;;;;5040265;28;34400;-75
2022/08/19 05:24:12;;;;;;;8.77;7.53;;;15.80;23.20;;;;;;5084704;28;34298;-75
2022/08/19 05:26:41;;;;;;;8.50;7.03;;;15.80;23.10;;;;;;5072335;28;34899;-76
2022/08/19 05:29:08;;;;;;;8.27;7.20;;;15.90;23.80;;;;;;5064897;28;34138;-76
2022/08/19 05:31:36;;;;;;;9.10;7.57;;;15.90;23.20;;;;;;5038118;28;35938;-75
2022/08/19 05:34:03;;;;;;;11.07;8.05;;;16.00;23.20;;;;;;5050467;28;34587;-75
2022/08/19 05:36:39;;;;;;;11.57;7.80;;;16.10;23.30;;;;;;5056148;28;35720;-75
2022/08/19 05:39:06;;;;;;;12.73;8.02;;;16.10;23.60;;;;;;5060617;28;34108;-75
2022/08/19 05:41:32;;;;;;;8.93;7.35;;;16.10;23.20;;;;;;5061551;28;35268;-76
2022/08/19 05:44:01;;;;;;;9.68;8.02;;;16.20;23.20;;;;;;5080993;28;33661;-75
2022/08/19 05:46:27;;;;;;;10.32;8.07;;;16.30;23.30;;;;;;5061230;28;34197;-75
2022/08/19 05:48:55;;;;;;;11.60;8.43;;;16.30;22.90;;;;;;5043728;28;34536;-75
2022/08/19 05:51:22;;;;;;;13.27;8.30;;;16.50;23.10;;;;;;5058058;28;35354;-75
2022/08/19 05:53:50;;;;;;;10.45;8.32;;;16.50;23.00;;;;;;5063370;28;34264;-75
2022/08/19 05:56:18;;;;;;;12.52;8.27;;;16.70;23.50;;;;;;5078828;28;34107;-76
2022/08/19 05:58:45;;;;;;;10.93;9.50;;;16.70;23.30;;;;;;5065662;28;34244;-76
2022/08/19 06:01:14;;;;;;;12.55;8.13;;;16.80;22.90;;;;;;5062694;28;35884;-76
2022/08/19 06:03:40;;;;;;;12.15;8.40;;;17.00;22.90;;;;;;5067767;28;34169;-76
2022/08/19 06:06:08;;;;;;;10.45;8.50;;;17.10;23.00;;;;;;5072412;28;34146;-75
2022/08/19 06:08:37;;;;;;;12.75;9.13;;;17.20;22.70;;;;;;5086974;28;34377;-75
2022/08/19 06:11:23;;;;;;;11.30;9.38;;;17.40;22.80;;;;;;5071602;28;35716;-76
2022/08/19 06:13:52;;;;;;;10.88;8.80;;;17.70;24.40;;;;;;5068104;28;34795;-75
2022/08/19 06:16:22;;;;;;;10.82;9.00;;;18.00;22.80;;;;;;5041742;28;34453;-75
2022/08/19 06:18:51;;;;;;;11.20;9.15;;;18.50;21.20;;;;;;5055455;28;34338;-76
2022/08/19 06:21:20;;;;;;;9.70;8.65;;;19.00;20.60;;;;;;5062204;28;36358;-76
2022/08/19 06:23:47;;;;;;;10.48;8.65;;;19.50;19.80;;;;;;5061663;28;34200;-76
2022/08/19 06:26:14;;;;;;;10.65;8.93;;;20.00;19.10;;;;;;5061438;28;34357;-76
2022/08/19 06:28:44;;;;;;;12.25;9.30;;;20.50;18.80;;;;;;5061966;28;34433;-76
2022/08/19 06:31:12;;;;;;;13.95;9.85;;;21.10;18.00;;;;;;5061590;28;35786;-77
2022/08/19 06:33:38;;;;;;;13.40;10.52;;;21.70;17.20;;;;;;5051593;28;34182;-75
2022/08/19 06:36:05;;;;;;;12.00;9.55;;;22.20;16.40;;;;;;5065447;28;34391;-76
2022/08/19 06:38:33;;;;;;;11.70;9.77;;;22.80;15.60;;;;;;5066310;28;34162;-76
2022/08/19 06:41:03;;;;;;;12.30;9.75;;;23.30;14.80;;;;;;5070668;28;35739;-76
2022/08/19 06:43:29;;;;;;;14.02;9.90;;;23.70;13.90;;;;;;5107285;28;34125;-76
2022/08/19 06:45:55;;;;;;;16.65;10.90;;;24.10;13.80;;;;;;5084726;28;34718;-77
2022/08/19 06:48:21;;;;;;;16.50;10.70;;;24.40;13.30;;;;;;5087664;28;34132;-76
2022/08/19 06:50:51;;;;;;;15.18;11.07;;;24.50;12.90;;;;;;5086908;28;34464;-77
2022/08/19 06:53:19;;;;;;;17.63;11.38;;;24.80;12.40;;;;;;5052695;28;34182;-76
2022/08/19 06:55:45;;;;;;;15.35;11.77;;;25.10;12.20;;;;;;5068845;28;34273;-76
2022/08/19 06:58:11;;;;;;;16.67;11.10;;;25.40;11.90;;;;;;5069078;28;34207;-76
2022/08/19 07:00:39;;;;;;;16.45;10.88;;;25.50;11.80;;;;;;5068201;28;35659;-76
2022/08/19 07:03:05;;;;;;;15.00;10.63;;;25.60;11.50;;;;;;5069002;28;34052;-76
2022/08/19 07:05:31;;;;;;;14.18;10.35;;;25.60;11.60;;;;;;5068951;28;34336;-76
2022/08/19 07:07:57;;;;;;;14.57;11.13;;;25.70;11.60;;;;;;5086609;28;34270;-76
2022/08/19 07:10:23;;;;;;;14.90;10.60;;;25.80;11.60;;;;;;5048005;28;35883;-76
2022/08/19 07:12:50;;;;;;;14.95;11.38;;;25.90;11.30;;;;;;5066074;28;34075;-76
2022/08/19 07:15:17;;;;;;;14.18;11.30;;;26.00;11.20;;;;;;5024042;28;34524;-76
2022/08/19 07:17:43;;;;;;;17.98;13.02;;;25.90;10.80;;;;;;5065012;28;34304;-77
2022/08/19 07:20:11;;;;;;;18.17;12.80;;;25.70;11.10;;;;;;5017998;28;36136;-77
2022/08/19 07:22:40;;;;;;;20.95;13.90;;;25.60;11.20;;;;;;5061478;28;34470;-80
2022/08/19 07:25:09;;;;;;;20.17;13.88;;;25.40;11.60;;;;;;5065922;28;34164;-76
2022/08/19 07:27:35;;;;;;;21.42;14.52;;;25.20;11.80;;;;;;5031112;28;34244;-77
2022/08/19 07:30:02;;;;;;;20.50;14.40;;;25.20;12.20;;;;;;5064840;28;35064;-76
2022/08/19 07:32:30;;;;;;;21.00;14.60;;;25.20;12.30;;;;;;5052828;28;34332;-76
2022/08/19 07:34:56;;;;;;;19.75;14.00;;;25.20;12.20;;;;;;5046239;28;34217;-77
2022/08/19 07:37:22;;;;;;;20.58;14.32;;;25.30;12.00;;;;;;5050133;28;34170;-76
2022/08/19 07:39:48;;;;;;;24.85;15.35;;;25.20;11.80;;;;;;5066869;28;35102;-78
2022/08/19 07:42:14;;;;;;;18.92;14.13;;;25.10;11.80;;;;;;5066442;28;34341;-75
2022/08/19 07:44:41;;;;;;;19.70;14.13;;;25.00;12.20;;;;;;5046826;28;34035;-76
2022/08/19 07:47:07;;;;;;;20.67;13.80;;;25.00;12.30;;;;;;5047507;28;34171;-77
2022/08/19 07:49:34;;;;;;;19.17;13.90;;;25.10;12.40;;;;;;5050361;28;35381;-77
2022/08/19 07:52:04;;;;;;;19.70;13.82;;;25.20;12.20;;;;;;5058425;28;34267;-76
2022/08/19 07:54:35;;;;;;;19.58;13.10;;;25.20;12.30;;;;;;5048717;28;34158;-76
2022/08/19 07:57:03;;;;;;;19.35;13.90;;;25.40;11.90;;;;;;5063016;28;34233;-76
2022/08/19 07:59:29;;;;;;;23.10;14.07;;;25.50;11.90;;;;;;5031881;28;35526;-76
2022/08/19 08:02:00;;;;;;;16.08;12.70;;;25.50;11.70;;;;;;5031844;28;34163;-76
2022/08/19 08:09:51;;;;;;;19.08;14.13;;;25.80;11.50;;;;;;5048763;28;34134;-76
2022/08/19 08:12:24;;;;;;;18.10;13.57;;;26.10;11.40;;;;;;5049289;28;34330;-76
2022/08/19 08:14:54;;;;;;;16.35;12.30;;;26.20;10.30;;;;;;5060094;28;34109;-76
2022/08/19 08:17:23;;;;;;;16.17;12.07;;;26.40;10.30;;;;;;5049458;28;34550;-76
2022/08/19 08:19:50;;;;;;;20.10;12.80;;;26.40;10.50;;;;;;5051306;28;34360;-76
2022/08/19 08:23:22;;;;;;;18.75;12.35;;;26.60;10.50;;;;;;5044657;28;34052;-76
2022/08/19 08:25:09;;;;;;;16.67;12.52;;;27.00;10.70;;;;;;5020931;28;34195;-77
2022/08/19 08:27:39;;;;;;;16.48;12.57;;;27.40;9.50;;;;;;5048085;28;34823;-76
2022/08/19 08:30:09;;;;;;;18.27;12.27;;;27.70;9.40;;;;;;5048773;28;36013;-76
2022/08/19 08:32:36;;;;;;;14.30;11.77;;;27.90;8.70;;;;;;5051161;28;34064;-76
2022/08/19 08:35:07;;;;;;;16.88;11.45;;;28.20;9.30;;;;;;5072873;28;34087;-75
2022/08/19 08:37:34;;;;;;;17.10;12.38;;;28.50;8.40;;;;;;5072018;28;34108;-77
2022/08/19 08:40:09;;;;;;;16.73;11.73;;;28.70;8.50;;;;;;5063217;28;36084;-76
2022/08/19 08:42:43;;;;;;;15.95;12.13;;;28.70;7.00;;;;;;5061453;28;34343;-77
2022/08/19 08:45:15;;;;;;;16.63;12.25;;;28.90;7.00;;;;;;5052749;28;34150;-77
2022/08/19 08:47:46;;;;;;;15.15;11.57;;;28.80;5.90;;;;;;5060807;28;34501;-77
2022/08/19 08:50:22;;;;;;;16.63;12.48;;;28.70;7.60;;;;;;5068430;28;34762;-76
2022/08/19 08:52:54;;;;;;;16.25;11.85;;;28.70;7.10;;;;;;5048747;28;34194;-77
2022/08/19 08:55:28;;;;;;;12.73;10.85;;;28.80;6.60;;;;;;5058578;28;34302;-76
2022/08/19 08:58:03;;;;;;;15.77;11.32;;;29.20;7.60;;;;;;5069872;28;34354;-77
2022/08/19 09:00:34;;;;;;;13.90;10.85;;;29.50;6.30;;;;;;5028239;28;35646;-77
2022/08/19 09:03:03;;;;;;;13.40;10.88;;;29.60;6.10;;;;;;5067207;28;33817;-77
2022/08/19 09:05:47;;;;;;;14.20;10.23;;;29.50;6.30;;;;;;5074861;28;34176;-76
2022/08/19 09:08:34;;;;;;;15.20;12.05;;;29.60;5.00;;;;;;5069662;28;34136;-76
2022/08/19 09:11:05;;;;;;;16.40;10.35;;;29.60;4.60;;;;;;5078418;28;35794;-78
2022/08/19 09:14:06;;;;;;;19.05;10.90;;;29.60;6.30;;;;;;5069414;28;34251;-76
2022/08/19 09:16:33;;;;;;;14.95;10.75;;;29.60;3.30;;;;;;5054124;28;34102;-76
2022/08/19 09:19:03;;;;;;;18.15;9.80;;;29.50;6.40;;;;;;5087468;28;34183;-77
2022/08/19 09:21:29;;;;;;;16.45;9.90;;;29.50;6.00;;;;;;5055794;28;34111;-77
2022/08/19 09:23:57;;;;;;;15.38;10.35;;;29.50;6.40;;;;;;5068577;28;34277;-77
2022/08/19 09:26:23;;;;;;;11.55;9.25;;;29.40;6.10;;;;;;5063999;28;34761;-76
2022/08/19 09:28:52;;;;;;;15.00;9.68;;;29.20;6.00;;;;;;5064385;28;34095;-77
2022/08/19 09:31:23;;;;;;;12.88;9.93;;;29.00;4.50;;;;;;5059957;28;35954;-78
2022/08/19 09:33:50;;;;;;;11.98;9.38;;;29.00;5.00;;;;;;5067069;28;34194;-76
2022/08/19 09:36:19;;;;;;;12.63;9.50;;;29.00;6.10;;;;;;5067010;28;34272;-77
2022/08/19 09:38:46;;;;;;;12.02;9.52;;;29.00;5.70;;;;;;5068050;28;34413;-76
2022/08/19 09:41:15;;;;;;;16.00;9.63;;;29.20;5.80;;;;;;5069243;28;36982;-78
2022/08/19 09:43:44;;;;;;;12.82;9.38;;;29.40;5.40;;;;;;5067341;28;34225;-78
2022/08/19 09:46:10;;;;;;;12.95;9.23;;;29.30;5.70;;;;;;5088699;28;34536;-76
2022/08/19 09:48:37;;;;;;;15.15;10.00;;;29.10;5.50;;;;;;5076508;28;34000;-80
2022/08/19 09:51:07;;;;;;;14.48;10.10;;;28.90;5.30;;;;;;5032204;28;36576;-77
2022/08/19 09:53:35;;;;;;;13.93;10.18;;;29.00;5.50;;;;;;5052877;28;34388;-77
2022/08/19 09:56:02;;;;;;;14.50;10.07;;;29.30;5.70;;;;;;5074485;28;34101;-77
2022/08/19 09:58:29;;;;;;;12.40;9.63;;;29.50;5.30;;;;;;5047206;28;34112;-77
2022/08/19 10:00:58;;;;;;;14.52;9.90;;;29.70;5.10;;;;;;5082032;28;34311;-77
2022/08/19 10:03:24;;;;;;;12.20;9.05;;;29.50;4.40;;;;;;5079831;28;34042;-77
2022/08/19 10:05:51;;;;;;;13.88;9.25;;;29.60;4.70;;;;;;5083701;28;34410;-79
2022/08/19 10:08:21;;;;;;;12.43;9.23;;;29.80;4.40;;;;;;5084587;28;34487;-77
2022/08/19 10:10:48;;;;;;;16.10;9.32;;;29.80;3.60;;;;;;5049521;28;36019;-78
2022/08/19 10:13:34;;;;;;;12.52;9.27;;;29.70;4.10;;;;;;5067162;28;34436;-79
2022/08/19 10:18:54;;;;;;;14.38;9.50;;;30.10;1.90;;;;;;5078753;28;34212;-76
2022/08/19 10:21:23;;;;;;;13.93;8.85;;;30.30;3.70;;;;;;5080034;28;34255;-78
2022/08/19 10:23:51;;;;;;;13.05;9.80;;;30.60;3.90;;;;;;5063444;28;34295;-78
2022/08/19 10:26:41;;;;;;;11.10;8.10;;;30.60;2.10;;;;;;5086264;28;34332;-77
2022/08/19 10:29:15;;;;;;;12.73;8.93;;;30.50;2.30;;;;;;5068952;28;34147;-77
2022/08/19 10:31:42;;;;;;;15.18;9.65;;;30.30;3.50;;;;;;5038183;28;36968;-79
2022/08/19 10:34:08;;;;;;;12.07;9.00;;;30.20;3.60;;;;;;5059316;28;34097;-76
2022/08/19 10:36:37;;;;;;;12.82;9.27;;;30.20;3.70;;;;;;5066879;28;34261;-76
2022/08/19 10:39:07;;;;;;;15.73;9.38;;;30.10;3.50;;;;;;5065936;28;34370;-79
2022/08/19 10:41:36;;;;;;;15.45;10.25;;;29.90;2.70;;;;;;5063168;28;36512;-77
2022/08/19 10:44:07;;;;;;;10.48;8.15;;;29.70;3.10;;;;;;5067316;28;34129;-78
2022/08/19 10:46:37;;;;;;;14.93;8.70;;;29.60;3.10;;;;;;5062812;28;34001;-78
2022/08/19 10:49:05;;;;;;;14.70;9.55;;;29.50;3.10;;;;;;5078556;28;34350;-77
2022/08/19 10:54:18;;;;;;;14.13;10.20;;;29.50;3.80;;;;;;5086371;28;34227;-76
2022/08/19 10:56:52;;;;;;;13.82;9.23;;;29.30;3.70;;;;;;5086179;28;34142;-77
2022/08/19 10:59:25;;;;;;;13.88;8.45;;;29.30;3.50;;;;;;5088552;28;34114;-76
2022/08/19 11:01:51;;;;;;;11.75;8.82;;;29.30;2.50;;;;;;5072915;28;36646;-77
2022/08/19 11:04:19;;;;;;;10.48;8.73;;;29.30;3.10;;;;;;5080813;28;34056;-76
2022/08/19 11:06:47;;;;;;;12.43;8.98;;;29.40;2.90;;;;;;5069653;28;34220;-76
2022/08/19 11:09:21;;;;;;;14.65;10.75;;;29.60;2.70;;;;;;5069791;28;35714;-76
2022/08/19 11:11:48;;;;;;;12.27;8.93;;;29.80;2.60;;;;;;5048198;28;35679;-77
2022/08/19 11:14:18;;;;;;;12.00;8.77;;;29.80;2.90;;;;;;5047761;28;34168;-77
2022/08/19 11:16:44;;;;;;;12.93;7.75;;;29.60;2.40;;;;;;5061870;28;34540;-78
2022/08/19 11:19:11;;;;;;;11.52;7.85;;;29.50;2.70;;;;;;5077622;28;34216;-76
2022/08/19 11:21:41;;;;;;;14.40;8.32;;;29.30;2.90;;;;;;5061939;28;34261;-76
2022/08/19 11:24:11;;;;;;;10.27;7.90;;;29.50;2.90;;;;;;5067436;28;34256;-77
2022/08/19 11:26:38;;;;;;;13.40;7.95;;;29.80;2.10;;;;;;5062673;28;34198;-78
2022/08/19 11:29:05;;;;;;;11.02;7.93;;;30.00;1.10;;;;;;5050429;28;34187;-76
2022/08/19 11:31:35;;;;;;;11.10;6.97;;;30.00;1.80;;;;;;5067809;28;35999;-77
2022/08/19 11:34:04;;;;;;;7.95;6.40;;;30.10;1.10;;;;;;5065890;28;34402;-76
2022/08/19 11:36:34;;;;;;;7.05;5.68;;;30.00;1.00;;;;;;5068752;28;34102;-78
2022/08/19 11:39:02;;;;;;;6.25;4.80;;;29.90;1.00;;;;;;5065724;28;34475;-76
2022/08/19 11:41:28;;;;;;;6.80;5.18;;;30.00;1.00;;;;;;5081222;28;34838;-77
2022/08/19 11:43:55;;;;;;;5.97;5.38;;;30.20;1.00;;;;;;5052861;28;34409;-77
2022/08/19 11:46:23;;;;;;;7.15;5.38;;;30.40;1.00;;;;;;5064146;28;34377;-77
2022/08/19 11:48:50;;;;;;;9.52;5.63;;;30.70;1.00;;;;;;5063462;28;34141;-78
2022/08/19 11:51:21;;;;;;;5.88;5.20;;;30.70;1.00;;;;;;5051907;28;36872;-78
2022/08/19 11:53:47;;;;;;;6.40;5.70;;;30.80;1.00;;;;;;5082779;28;34107;-77
2022/08/19 11:56:14;;;;;;;7.28;5.47;;;30.80;1.00;;;;;;5094603;28;34235;-78
2022/08/19 11:58:41;;;;;;;9.27;6.13;;;30.80;1.00;;;;;;5056033;28;34135;-77
2022/08/19 12:01:12;;;;;;;10.57;5.60;;;30.90;1.00;;;;;;5052761;28;35955;-77
2022/08/19 12:03:38;;;;;;;7.93;5.68;;;31.00;1.00;;;;;;5085317;28;34110;-77
2022/08/19 12:06:07;;;;;;;6.93;5.50;;;31.00;1.00;;;;;;5065074;28;34327;-77
2022/08/19 12:08:33;;;;;;;6.80;6.10;;;30.90;1.00;;;;;;5048027;28;34421;-77
2022/08/19 12:11:01;;;;;;;7.82;5.38;;;30.80;1.00;;;;;;5040336;28;36455;-77
2022/08/19 12:13:28;;;;;;;8.95;5.47;;;30.70;1.00;;;;;;5048732;28;34095;-77
2022/08/19 12:15:54;;;;;;;6.47;4.90;;;30.50;1.00;;;;;;5055167;28;34393;-77
2022/08/19 12:18:20;;;;;;;5.68;4.72;;;30.30;1.00;;;;;;5049077;28;34243;-78
2022/08/19 12:20:47;;;;;;;5.47;4.60;;;30.10;1.00;;;;;;5048591;28;36434;-76
2022/08/19 12:23:13;;;;;;;5.28;4.32;;;30.20;1.00;;;;;;5053247;28;34099;-77
2022/08/19 12:25:49;;;;;;;3.97;3.53;;;30.40;1.00;;;;;;5056363;28;34153;-75
2022/08/19 12:28:16;;;;;;;5.00;4.00;;;30.40;1.00;;;;;;5087376;28;34166;-77
2022/08/19 12:30:43;;;;;;;4.57;3.55;;;30.30;1.00;;;;;;5077603;28;34997;-77
2022/08/19 12:33:09;;;;;;;3.35;3.00;;;30.10;1.00;;;;;;5062768;28;34326;-76
2022/08/19 12:35:36;;;;;;;2.97;2.63;;;30.10;1.00;;;;;;5065093;28;34428;-76
2022/08/19 12:38:02;;;;;;;11.48;3.45;;;29.90;1.00;;;;;;5068859;28;33863;-76
2022/08/19 12:40:28;;;;;;;4.25;3.38;;;29.80;1.00;;;;;;5054541;28;36082;-77
2022/08/19 12:42:55;;;;;;;5.70;3.60;;;29.70;1.00;;;;;;5064616;28;34462;-77
2022/08/19 12:45:22;;;;;;;4.32;3.30;;;29.50;1.00;;;;;;5059216;28;34372;-77
2022/08/19 12:47:48;;;;;;;3.65;3.10;;;29.40;1.00;;;;;;5053027;28;34245;-75
2022/08/19 12:50:14;;;;;;;3.30;3.00;;;29.20;1.00;;;;;;5069796;28;35832;-76
2022/08/19 12:52:41;;;;;;;4.45;3.40;;;29.10;1.00;;;;;;5028867;28;34081;-76
2022/08/19 12:55:09;;;;;;;3.13;2.83;;;29.30;1.00;;;;;;5070671;28;34218;-76
2022/08/19 12:57:35;;;;;;;4.45;2.55;;;29.60;1.00;;;;;;5086663;28;34247;-76
2022/08/19 13:00:30;;;;;;;2.80;2.10;;;29.90;1.00;;;;;;5067938;28;35942;-77
2022/08/19 13:02:56;;;;;;;5.75;2.03;;;30.30;1.00;;;;;;5070786;28;34207;-76
2022/08/19 13:05:25;;;;;;;2.95;1.90;;;30.60;1.00;;;;;;5041248;28;34181;-76
2022/08/19 13:07:56;;;;;;;2.50;1.98;;;30.90;1.00;;;;;;5070208;28;33836;-77